INFORMACIÓN METAR y TAF
METAR FOR LSGG
ADDS - METARS form results

(0656 UTC 24 January 2019)
Data provider http://aviationweather.gov/metar/data/
 
METAR text: LSGG 240650Z 35003KT 310V040 9999 FEW020 BKN045 M00/M05 Q1004 R04/29 NOSIG
Conditions at: LSGG (GENEVA/COINTRIN , CH) observed 0650 UTC 24 January 2019
Temperature: 0.0°C (32°F)
Dewpoint: -5.0°C (23°F) [RH = 69%]
Pressure (altimeter): 29.65 inches Hg (1004.0 mb)
Winds: from the N (350 degrees) at 3 MPH (3 knots; 1.5 m/s)
Visibility: 6 or more miles (10+ km)
Ceiling: 4500 feet AGL
Clouds: few clouds at 2000 feet AGL
broken clouds at 4500 feet AGL
Weather: no significant weather observed at this time

METAR text: LSGG 240620Z 01004KT 330V040 9999 FEW020 BKN045 M00/M05 Q1004 R04/29//// NOSIG
Conditions at: LSGG (GENEVA/COINTRIN , CH) observed 0620 UTC 24 January 2019
Temperature: 0.0°C (32°F)
Dewpoint: -5.0°C (23°F) [RH = 69%]
Pressure (altimeter): 29.65 inches Hg (1004.0 mb)
Winds: from the N (10 degrees) at 5 MPH (4 knots; 2.1 m/s)
Visibility: 6 or more miles (10+ km)
Ceiling: 4500 feet AGL
Clouds: few clouds at 2000 feet AGL
broken clouds at 4500 feet AGL
Weather: no significant weather observed at this time

Forecast for: LSGG (GENEVA/COINTRIN , CH)
Text: TAF LSGG 240525Z 2406/2512 03006KT 9999 BKN045 TX01/2415Z TNM01/2406Z TNM04/2506Z
Forecast period: 0600 UTC 24 January 2019 to 1200 UTC 25 January 2019
Forecast type: FROM: standard forecast or significant change
Winds: from the NNE (30 degrees) at 7 MPH (6 knots; 3.1 m/s)
Visibility: 6 or more miles 10+ km)
Ceiling: 4500 feet AGL
Clouds: broken clouds at 4500 feet AGL
Weather: no significant weather forecast for this period

 MAPA DE AEROPUERTO

 INFORMACIÓN DE PISTA
Pista 05 Longitud 12795 ft Ancho 164 ft
Elevación 1411 ft Umbral desplazado 1082 ft Rumbo de pista 46
Pista 23 Longitud 12795 ft Ancho 164 ft
Elevación 1365 ft Umbral desplazado 0 ft Rumbo de pista 226
Pista 05L Longitud 2700 ft Ancho 98 ft
Elevación 1378 ft Umbral desplazado 613 ft Rumbo de pista 46
Pista 23R Longitud 2700 ft Ancho 98 ft
Elevación 1393 ft Umbral desplazado 994 ft Rumbo de pista 226

 FRECUANCIAS DEL AEROPUERTO
Tipo APP Nombre APP Frecuencia 120.3 MHZ
Tipo ARR Nombre ARR Frecuencia 136.25 MHZ
Tipo ATIS Nombre ATIS Frecuencia 135.575 MHZ
Tipo DEP Nombre DEP Frecuencia 119.525 MHZ
Tipo GND Nombre GND Frecuencia 121.675 MHZ
Tipo GTE Nombre APN Frecuencia 121.75 MHZ
Tipo TWR Nombre TWR Frecuencia 118.7 MHZ

 RADIO AYUDAS DEL AEROPUERTO
Tipo NDB Nombre Gland Frecuencia 375 KHZ
Tipo VOR-DME Nombre Geneva Cointrin Frecuencia 115750 KHZ
Tipo VOR-DME Nombre Passeiry Frecuencia 116600 KHZ



Powered by Virtual Airlines Manager [v2.6.2]